Ridgemont, New York
Current Conditions -  °F | °C
As of 5:54 AM on Thursday 23 Oct 2014 (Local Time) from KROC Reporting Station
Few Clouds Few Clouds  
Wind Chill: 42°   Ceiling: Unl
Heat Index: 47°   Visibility: 10mi
Dew Point: 39°   Wind: 10mph
Humidity: 74%   Direction: 360°N
Pressure: 30.11"   Gusts: NA
Location:  43.2109°N, 77.7136°W
Report Text: KROC 230954Z 36009KT 10SM FEW070 08/04 A3011 RMK AO2 SLP201 T00830039
Loading
Personal Weather Stations






























Interactive Weather Map
Tropical Storm Tracking
New forecast layout! Learn more

10-Day Weather Forecast

Advertisements
Track Severe Weather on mobile